sensor_id;sensor_type;location;lat;lon;timestamp;temperature;humidity
4505;DHT22;2265;48.794;9.520;2023-02-11T00:00:23;-1.50;98.00
4505;DHT22;2265;48.794;9.520;2023-02-11T00:02:51;-1.70;98.00
4505;DHT22;2265;48.794;9.520;2023-02-11T00:05:18;-1.70;98.00
4505;DHT22;2265;48.794;9.520;2023-02-11T00:07:45;-1.60;98.00
4505;DHT22;2265;48.794;9.520;2023-02-11T00:10:16;-1.60;98.00
4505;DHT22;2265;48.794;9.520;2023-02-11T00:12:43;-1.50;98.00
4505;DHT22;2265;48.794;9.520;2023-02-11T00:15:10;-1.50;98.00
4505;DHT22;2265;48.794;9.520;2023-02-11T00:17:37;-1.60;98.00
4505;DHT22;2265;48.794;9.520;2023-02-11T00:20:06;-1.70;98.00
4505;DHT22;2265;48.794;9.520;2023-02-11T00:22:33;-1.70;98.00
4505;DHT22;2265;48.794;9.520;2023-02-11T00:25:00;-1.70;98.00
4505;DHT22;2265;48.794;9.520;2023-02-11T00:27:28;-1.70;98.00
4505;DHT22;2265;48.794;9.520;2023-02-11T00:29:56;-1.80;98.00
4505;DHT22;2265;48.794;9.520;2023-02-11T00:32:25;-1.70;98.00
4505;DHT22;2265;48.794;9.520;2023-02-11T00:34:52;-1.70;98.00
4505;DHT22;2265;48.794;9.520;2023-02-11T00:37:20;-1.70;98.00
4505;DHT22;2265;48.794;9.520;2023-02-11T00:39:47;-1.70;98.00
4505;DHT22;2265;48.794;9.520;2023-02-11T00:42:15;-1.60;98.00
4505;DHT22;2265;48.794;9.520;2023-02-11T00:44:43;-1.50;98.00
4505;DHT22;2265;48.794;9.520;2023-02-11T00:47:10;-1.50;98.00
4505;DHT22;2265;48.794;9.520;2023-02-11T00:49:40;-1.60;98.00
4505;DHT22;2265;48.794;9.520;2023-02-11T00:52:07;-1.90;98.00
4505;DHT22;2265;48.794;9.520;2023-02-11T00:54:34;-1.90;98.00
4505;DHT22;2265;48.794;9.520;2023-02-11T00:57:01;-2.00;98.00
4505;DHT22;2265;48.794;9.520;2023-02-11T00:59:28;-2.10;98.00
4505;DHT22;2265;48.794;9.520;2023-02-11T01:01:58;-1.90;98.00
4505;DHT22;2265;48.794;9.520;2023-02-11T01:04:25;-1.90;98.00
4505;DHT22;2265;48.794;9.520;2023-02-11T01:06:55;-1.80;98.00
4505;DHT22;2265;48.794;9.520;2023-02-11T01:09:22;-1.70;98.00
4505;DHT22;2265;48.794;9.520;2023-02-11T01:11:49;-1.70;98.00
4505;DHT22;2265;48.794;9.520;2023-02-11T01:14:16;-1.80;98.00
4505;DHT22;2265;48.794;9.520;2023-02-11T01:16:43;-1.80;98.00
4505;DHT22;2265;48.794;9.520;2023-02-11T01:19:12;-2.00;98.00
4505;DHT22;2265;48.794;9.520;2023-02-11T01:21:39;-2.10;98.00
4505;DHT22;2265;48.794;9.520;2023-02-11T01:24:06;-2.00;98.00
4505;DHT22;2265;48.794;9.520;2023-02-11T01:26:33;-1.90;98.00
4505;DHT22;2265;48.794;9.520;2023-02-11T01:29:00;-1.80;98.00
4505;DHT22;2265;48.794;9.520;2023-02-11T01:31:29;-2.00;98.00
4505;DHT22;2265;48.794;9.520;2023-02-11T01:33:56;-2.00;98.00
4505;DHT22;2265;48.794;9.520;2023-02-11T01:36:25;-2.10;98.00
4505;DHT22;2265;48.794;9.520;2023-02-11T01:38:53;-1.90;98.00
4505;DHT22;2265;48.794;9.520;2023-02-11T01:41:20;-1.80;98.00
4505;DHT22;2265;48.794;9.520;2023-02-11T01:43:48;-1.80;98.00
4505;DHT22;2265;48.794;9.520;2023-02-11T01:46:31;-2.00;98.00
4505;DHT22;2265;48.794;9.520;2023-02-11T01:49:02;-2.20;98.00
4505;DHT22;2265;48.794;9.520;2023-02-11T01:51:34;-2.30;98.00
4505;DHT22;2265;48.794;9.520;2023-02-11T01:54:04;-2.40;98.00
4505;DHT22;2265;48.794;9.520;2023-02-11T01:56:50;-2.50;98.00
4505;DHT22;2265;48.794;9.520;2023-02-11T01:59:40;-2.60;98.00
4505;DHT22;2265;48.794;9.520;2023-02-11T02:02:11;-2.60;98.00
4505;DHT22;2265;48.794;9.520;2023-02-11T02:04:43;-2.60;98.00
4505;DHT22;2265;48.794;9.520;2023-02-11T02:07:19;-2.60;98.00
4505;DHT22;2265;48.794;9.520;2023-02-11T02:09:57;-2.50;98.00
4505;DHT22;2265;48.794;9.520;2023-02-11T02:12:26;-2.40;98.00
4505;DHT22;2265;48.794;9.520;2023-02-11T02:15:13;-2.40;98.00
4505;DHT22;2265;48.794;9.520;2023-02-11T02:17:47;-2.30;98.00
4505;DHT22;2265;48.794;9.520;2023-02-11T02:20:38;-2.30;98.00
4505;DHT22;2265;48.794;9.520;2023-02-11T02:23:25;-2.40;98.00
4505;DHT22;2265;48.794;9.520;2023-02-11T02:29:19;-2.10;98.00
4505;DHT22;2265;48.794;9.520;2023-02-11T02:32:12;-2.10;98.00
4505;DHT22;2265;48.794;9.520;2023-02-11T02:34:45;-2.00;98.00
4505;DHT22;2265;48.794;9.520;2023-02-11T02:37:18;-2.00;98.00
4505;DHT22;2265;48.794;9.520;2023-02-11T02:39:48;-2.20;98.00
4505;DHT22;2265;48.794;9.520;2023-02-11T02:42:17;-2.20;98.00
4505;DHT22;2265;48.794;9.520;2023-02-11T02:44:48;-2.10;98.00
4505;DHT22;2265;48.794;9.520;2023-02-11T02:47:17;-2.20;98.00
4505;DHT22;2265;48.794;9.520;2023-02-11T02:49:44;-2.20;98.00
4505;DHT22;2265;48.794;9.520;2023-02-11T02:52:20;-2.10;98.00
4505;DHT22;2265;48.794;9.520;2023-02-11T02:55:21;-2.20;98.00
4505;DHT22;2265;48.794;9.520;2023-02-11T03:00:57;-2.00;98.00
4505;DHT22;2265;48.794;9.520;2023-02-11T03:03:33;-1.70;98.00
4505;DHT22;2265;48.794;9.520;2023-02-11T03:06:04;-1.70;98.00
4505;DHT22;2265;48.794;9.520;2023-02-11T03:08:38;-1.70;98.00
4505;DHT22;2265;48.794;9.520;2023-02-11T03:11:09;-1.70;98.00
4505;DHT22;2265;48.794;9.520;2023-02-11T03:13:38;-1.70;98.00
4505;DHT22;2265;48.794;9.520;2023-02-11T03:16:08;-1.70;98.00
4505;DHT22;2265;48.794;9.520;2023-02-11T03:18:41;-1.70;98.00
4505;DHT22;2265;48.794;9.520;2023-02-11T03:21:10;-1.80;98.00
4505;DHT22;2265;48.794;9.520;2023-02-11T03:23:41;-1.90;98.00
4505;DHT22;2265;48.794;9.520;2023-02-11T03:26:15;-2.00;98.00
4505;DHT22;2265;48.794;9.520;2023-02-11T03:28:50;-2.00;98.00
4505;DHT22;2265;48.794;9.520;2023-02-11T03:31:27;-2.10;98.00
4505;DHT22;2265;48.794;9.520;2023-02-11T03:34:01;-2.00;98.00
4505;DHT22;2265;48.794;9.520;2023-02-11T03:36:35;-2.00;98.00
4505;DHT22;2265;48.794;9.520;2023-02-11T03:39:06;-1.90;98.00
4505;DHT22;2265;48.794;9.520;2023-02-11T03:41:40;-1.90;98.00
4505;DHT22;2265;48.794;9.520;2023-02-11T03:44:08;-1.80;98.00
4505;DHT22;2265;48.794;9.520;2023-02-11T03:46:38;-1.70;98.00
4505;DHT22;2265;48.794;9.520;2023-02-11T03:49:10;-1.50;98.00
4505;DHT22;2265;48.794;9.520;2023-02-11T03:51:39;-1.40;98.00
4505;DHT22;2265;48.794;9.520;2023-02-11T03:54:10;-1.40;98.00
4505;DHT22;2265;48.794;9.520;2023-02-11T03:56:44;-1.30;98.00
4505;DHT22;2265;48.794;9.520;2023-02-11T03:59:13;-1.20;98.00
4505;DHT22;2265;48.794;9.520;2023-02-11T04:01:49;-1.20;98.00
4505;DHT22;2265;48.794;9.520;2023-02-11T04:04:17;-1.20;98.00
4505;DHT22;2265;48.794;9.520;2023-02-11T04:06:44;-1.10;98.00
4505;DHT22;2265;48.794;9.520;2023-02-11T04:09:11;-1.00;98.00
4505;DHT22;2265;48.794;9.520;2023-02-11T04:11:39;-0.80;98.00
4505;DHT22;2265;48.794;9.520;2023-02-11T04:14:06;-0.90;98.00
4505;DHT22;2265;48.794;9.520;2023-02-11T04:16:33;-1.00;98.00
4505;DHT22;2265;48.794;9.520;2023-02-11T04:19:03;-1.10;98.00
4505;DHT22;2265;48.794;9.520;2023-02-11T04:21:31;-1.20;98.00
4505;DHT22;2265;48.794;9.520;2023-02-11T04:23:59;-1.20;98.00
4505;DHT22;2265;48.794;9.520;2023-02-11T04:26:26;-1.20;98.00
4505;DHT22;2265;48.794;9.520;2023-02-11T04:28:53;-1.10;98.00
4505;DHT22;2265;48.794;9.520;2023-02-11T04:31:20;-1.00;98.00
4505;DHT22;2265;48.794;9.520;2023-02-11T04:33:47;-0.90;98.00
4505;DHT22;2265;48.794;9.520;2023-02-11T04:36:14;-0.80;98.00
4505;DHT22;2265;48.794;9.520;2023-02-11T04:38:42;-0.80;98.00
4505;DHT22;2265;48.794;9.520;2023-02-11T04:41:09;-0.80;98.00
4505;DHT22;2265;48.794;9.520;2023-02-11T04:43:36;-0.70;98.00
4505;DHT22;2265;48.794;9.520;2023-02-11T04:46:04;-0.70;98.00
4505;DHT22;2265;48.794;9.520;2023-02-11T04:48:31;-0.80;98.00
4505;DHT22;2265;48.794;9.520;2023-02-11T04:50:59;-0.90;98.00
4505;DHT22;2265;48.794;9.520;2023-02-11T04:53:26;-0.90;98.00
4505;DHT22;2265;48.794;9.520;2023-02-11T04:55:54;-0.90;98.00
4505;DHT22;2265;48.794;9.520;2023-02-11T04:58:22;-0.80;98.00
4505;DHT22;2265;48.794;9.520;2023-02-11T05:00:49;-0.70;98.00
4505;DHT22;2265;48.794;9.520;2023-02-11T05:03:16;-0.70;98.00
4505;DHT22;2265;48.794;9.520;2023-02-11T05:05:43;-0.60;98.00
4505;DHT22;2265;48.794;9.520;2023-02-11T05:08:10;-0.50;98.00
4505;DHT22;2265;48.794;9.520;2023-02-11T05:10:37;-0.60;98.00
4505;DHT22;2265;48.794;9.520;2023-02-11T05:13:06;-0.60;98.00
4505;DHT22;2265;48.794;9.520;2023-02-11T05:15:33;-0.50;98.00
4505;DHT22;2265;48.794;9.520;2023-02-11T05:18:00;-0.40;98.00
4505;DHT22;2265;48.794;9.520;2023-02-11T05:20:28;-0.40;98.00
4505;DHT22;2265;48.794;9.520;2023-02-11T05:22:55;-0.50;98.00
4505;DHT22;2265;48.794;9.520;2023-02-11T05:25:22;-0.50;98.00
4505;DHT22;2265;48.794;9.520;2023-02-11T05:27:49;-0.60;98.00
4505;DHT22;2265;48.794;9.520;2023-02-11T05:30:17;-0.50;98.00
4505;DHT22;2265;48.794;9.520;2023-02-11T05:32:44;-0.60;98.00
4505;DHT22;2265;48.794;9.520;2023-02-11T05:35:11;-0.50;98.00
4505;DHT22;2265;48.794;9.520;2023-02-11T05:37:39;-0.40;98.00
4505;DHT22;2265;48.794;9.520;2023-02-11T05:40:06;-0.40;98.00
4505;DHT22;2265;48.794;9.520;2023-02-11T05:42:34;-0.40;98.00
4505;DHT22;2265;48.794;9.520;2023-02-11T05:45:02;-0.30;98.00
4505;DHT22;2265;48.794;9.520;2023-02-11T05:47:30;-0.50;98.00
4505;DHT22;2265;48.794;9.520;2023-02-11T05:49:57;-0.50;98.00
4505;DHT22;2265;48.794;9.520;2023-02-11T05:52:25;-0.50;98.00
4505;DHT22;2265;48.794;9.520;2023-02-11T05:54:52;-0.50;98.00
4505;DHT22;2265;48.794;9.520;2023-02-11T05:57:19;-0.50;98.00
4505;DHT22;2265;48.794;9.520;2023-02-11T05:59:46;-0.50;98.00
4505;DHT22;2265;48.794;9.520;2023-02-11T06:02:13;-0.60;98.00
4505;DHT22;2265;48.794;9.520;2023-02-11T06:04:41;-0.60;98.00
4505;DHT22;2265;48.794;9.520;2023-02-11T06:07:08;-0.60;98.00
4505;DHT22;2265;48.794;9.520;2023-02-11T06:09:36;-0.60;98.00
4505;DHT22;2265;48.794;9.520;2023-02-11T06:12:03;-0.70;98.00
4505;DHT22;2265;48.794;9.520;2023-02-11T06:14:31;-0.60;98.00
4505;DHT22;2265;48.794;9.520;2023-02-11T06:16:59;-0.40;98.00
4505;DHT22;2265;48.794;9.520;2023-02-11T06:19:26;-0.20;98.00
4505;DHT22;2265;48.794;9.520;2023-02-11T06:21:55;-0.30;98.00
4505;DHT22;2265;48.794;9.520;2023-02-11T06:24:22;-0.30;98.00
4505;DHT22;2265;48.794;9.520;2023-02-11T06:26:49;-0.30;98.00
4505;DHT22;2265;48.794;9.520;2023-02-11T06:29:16;-0.20;98.00
4505;DHT22;2265;48.794;9.520;2023-02-11T06:31:43;-0.30;98.00
4505;DHT22;2265;48.794;9.520;2023-02-11T06:34:10;-0.30;98.00
4505;DHT22;2265;48.794;9.520;2023-02-11T06:36:38;-0.30;98.00
4505;DHT22;2265;48.794;9.520;2023-02-11T06:39:11;-0.30;98.00
4505;DHT22;2265;48.794;9.520;2023-02-11T06:41:38;-0.40;98.00
4505;DHT22;2265;48.794;9.520;2023-02-11T06:44:06;-0.40;98.00
4505;DHT22;2265;48.794;9.520;2023-02-11T06:46:33;-0.40;98.00
4505;DHT22;2265;48.794;9.520;2023-02-11T06:49:00;-0.50;98.00
4505;DHT22;2265;48.794;9.520;2023-02-11T06:51:27;-0.40;98.00
4505;DHT22;2265;48.794;9.520;2023-02-11T06:53:54;-0.50;98.00
4505;DHT22;2265;48.794;9.520;2023-02-11T06:56:23;-0.20;98.00
4505;DHT22;2265;48.794;9.520;2023-02-11T06:58:52;-0.10;98.00
4505;DHT22;2265;48.794;9.520;2023-02-11T07:01:21;0.00;98.00
4505;DHT22;2265;48.794;9.520;2023-02-11T07:03:49;0.00;98.00
4505;DHT22;2265;48.794;9.520;2023-02-11T07:06:18;0.10;98.00
4505;DHT22;2265;48.794;9.520;2023-02-11T07:08:46;0.00;98.00
4505;DHT22;2265;48.794;9.520;2023-02-11T07:11:16;0.00;98.00
4505;DHT22;2265;48.794;9.520;2023-02-11T07:13:46;-0.10;98.00
4505;DHT22;2265;48.794;9.520;2023-02-11T07:16:15;-0.10;98.00
4505;DHT22;2265;48.794;9.520;2023-02-11T07:18:43;0.00;98.00
4505;DHT22;2265;48.794;9.520;2023-02-11T07:21:12;0.00;98.00
4505;DHT22;2265;48.794;9.520;2023-02-11T07:23:39;0.10;98.00
4505;DHT22;2265;48.794;9.520;2023-02-11T07:26:16;0.10;98.00
4505;DHT22;2265;48.794;9.520;2023-02-11T07:28:44;0.10;98.00
4505;DHT22;2265;48.794;9.520;2023-02-11T07:31:16;0.20;98.00
4505;DHT22;2265;48.794;9.520;2023-02-11T07:33:43;0.30;98.00
4505;DHT22;2265;48.794;9.520;2023-02-11T07:36:12;0.50;98.00
4505;DHT22;2265;48.794;9.520;2023-02-11T07:38:40;0.50;98.00
4505;DHT22;2265;48.794;9.520;2023-02-11T07:41:10;0.50;98.00
4505;DHT22;2265;48.794;9.520;2023-02-11T07:43:39;0.60;98.00
4505;DHT22;2265;48.794;9.520;2023-02-11T07:46:08;0.90;98.00
4505;DHT22;2265;48.794;9.520;2023-02-11T07:48:37;0.90;98.00
4505;DHT22;2265;48.794;9.520;2023-02-11T07:51:05;0.80;98.00
4505;DHT22;2265;48.794;9.520;2023-02-11T07:53:32;0.70;98.00
4505;DHT22;2265;48.794;9.520;2023-02-11T07:56:01;0.60;98.00
4505;DHT22;2265;48.794;9.520;2023-02-11T07:58:28;0.70;98.00
4505;DHT22;2265;48.794;9.520;2023-02-11T08:01:00;0.80;98.00
4505;DHT22;2265;48.794;9.520;2023-02-11T08:03:27;1.00;98.00
4505;DHT22;2265;48.794;9.520;2023-02-11T08:05:56;1.10;98.00
4505;DHT22;2265;48.794;9.520;2023-02-11T08:08:26;1.20;98.00
4505;DHT22;2265;48.794;9.520;2023-02-11T08:10:53;1.30;98.00
4505;DHT22;2265;48.794;9.520;2023-02-11T08:13:21;1.40;98.00
4505;DHT22;2265;48.794;9.520;2023-02-11T08:15:48;1.30;98.00
4505;DHT22;2265;48.794;9.520;2023-02-11T08:18:15;1.30;98.00
4505;DHT22;2265;48.794;9.520;2023-02-11T08:20:42;1.40;98.00
4505;DHT22;2265;48.794;9.520;2023-02-11T08:23:11;1.50;98.00
4505;DHT22;2265;48.794;9.520;2023-02-11T08:25:38;1.50;98.00
4505;DHT22;2265;48.794;9.520;2023-02-11T08:28:05;1.50;98.00
4505;DHT22;2265;48.794;9.520;2023-02-11T08:30:33;1.60;98.00
4505;DHT22;2265;48.794;9.520;2023-02-11T08:33:00;1.60;98.00
4505;DHT22;2265;48.794;9.520;2023-02-11T08:35:27;1.90;98.00
4505;DHT22;2265;48.794;9.520;2023-02-11T08:37:57;1.90;98.00
4505;DHT22;2265;48.794;9.520;2023-02-11T08:40:25;2.00;98.00
4505;DHT22;2265;48.794;9.520;2023-02-11T08:42:53;1.90;98.00
4505;DHT22;2265;48.794;9.520;2023-02-11T08:45:20;2.10;98.00
4505;DHT22;2265;48.794;9.520;2023-02-11T08:47:47;2.20;98.00
4505;DHT22;2265;48.794;9.520;2023-02-11T08:50:14;2.10;98.00
4505;DHT22;2265;48.794;9.520;2023-02-11T08:52:41;2.10;98.00
4505;DHT22;2265;48.794;9.520;2023-02-11T08:55:09;2.10;98.00
4505;DHT22;2265;48.794;9.520;2023-02-11T08:57:39;2.00;98.00
4505;DHT22;2265;48.794;9.520;2023-02-11T09:00:07;2.00;98.00
4505;DHT22;2265;48.794;9.520;2023-02-11T09:02:35;2.00;98.00
4505;DHT22;2265;48.794;9.520;2023-02-11T09:05:02;2.10;98.00
4505;DHT22;2265;48.794;9.520;2023-02-11T09:07:30;2.20;98.00
4505;DHT22;2265;48.794;9.520;2023-02-11T09:09:57;2.40;98.00
4505;DHT22;2265;48.794;9.520;2023-02-11T09:12:24;2.60;98.00
4505;DHT22;2265;48.794;9.520;2023-02-11T09:14:55;2.70;98.00
4505;DHT22;2265;48.794;9.520;2023-02-11T09:17:23;2.80;98.00
4505;DHT22;2265;48.794;9.520;2023-02-11T09:19:50;2.90;98.00
4505;DHT22;2265;48.794;9.520;2023-02-11T09:22:17;2.90;98.00
4505;DHT22;2265;48.794;9.520;2023-02-11T09:24:44;2.90;98.00
4505;DHT22;2265;48.794;9.520;2023-02-11T09:27:12;2.90;98.00
4505;DHT22;2265;48.794;9.520;2023-02-11T09:29:39;3.10;98.00
4505;DHT22;2265;48.794;9.520;2023-02-11T09:32:14;3.00;98.00
4505;DHT22;2265;48.794;9.520;2023-02-11T09:34:42;3.00;98.00
4505;DHT22;2265;48.794;9.520;2023-02-11T09:37:10;3.10;98.00
4505;DHT22;2265;48.794;9.520;2023-02-11T09:39:38;3.20;98.00
4505;DHT22;2265;48.794;9.520;2023-02-11T09:42:23;3.20;98.00
4505;DHT22;2265;48.794;9.520;2023-02-11T09:44:55;3.40;98.00
4505;DHT22;2265;48.794;9.520;2023-02-11T09:47:29;3.60;98.00
4505;DHT22;2265;48.794;9.520;2023-02-11T09:50:00;3.70;98.00
4505;DHT22;2265;48.794;9.520;2023-02-11T09:52:36;3.90;98.00
4505;DHT22;2265;48.794;9.520;2023-02-11T09:55:10;4.10;98.00
4505;DHT22;2265;48.794;9.520;2023-02-11T09:57:40;4.20;98.00
4505;DHT22;2265;48.794;9.520;2023-02-11T10:00:17;4.40;98.00
4505;DHT22;2265;48.794;9.520;2023-02-11T10:05:47;4.70;98.00
4505;DHT22;2265;48.794;9.520;2023-02-11T10:08:22;4.70;98.00
4505;DHT22;2265;48.794;9.520;2023-02-11T10:10:55;4.90;98.00
4505;DHT22;2265;48.794;9.520;2023-02-11T10:13:37;4.80;98.00
4505;DHT22;2265;48.794;9.520;2023-02-11T10:16:18;4.80;98.00
4505;DHT22;2265;48.794;9.520;2023-02-11T10:19:07;4.90;98.00
4505;DHT22;2265;48.794;9.520;2023-02-11T10:21:46;4.90;98.00
4505;DHT22;2265;48.794;9.520;2023-02-11T10:24:16;5.00;98.00
4505;DHT22;2265;48.794;9.520;2023-02-11T10:26:44;5.20;98.00
4505;DHT22;2265;48.794;9.520;2023-02-11T10:29:20;5.30;98.00
4505;DHT22;2265;48.794;9.520;2023-02-11T10:31:51;5.30;98.00
4505;DHT22;2265;48.794;9.520;2023-02-11T10:34:20;5.40;98.00
4505;DHT22;2265;48.794;9.520;2023-02-11T10:36:47;5.50;98.00
4505;DHT22;2265;48.794;9.520;2023-02-11T10:39:15;5.50;98.00
4505;DHT22;2265;48.794;9.520;2023-02-11T10:41:45;5.70;98.00
4505;DHT22;2265;48.794;9.520;2023-02-11T10:44:20;5.80;98.00
4505;DHT22;2265;48.794;9.520;2023-02-11T10:46:50;5.90;98.00
4505;DHT22;2265;48.794;9.520;2023-02-11T10:52:19;6.10;98.00
4505;DHT22;2265;48.794;9.520;2023-02-11T10:55:01;6.40;98.00
4505;DHT22;2265;48.794;9.520;2023-02-11T10:57:32;6.60;98.00
4505;DHT22;2265;48.794;9.520;2023-02-11T11:00:04;6.80;98.00
4505;DHT22;2265;48.794;9.520;2023-02-11T11:02:34;7.00;98.00
4505;DHT22;2265;48.794;9.520;2023-02-11T11:05:06;7.20;98.00
4505;DHT22;2265;48.794;9.520;2023-02-11T11:07:51;7.20;98.00
4505;DHT22;2265;48.794;9.520;2023-02-11T11:10:32;7.40;98.00
4505;DHT22;2265;48.794;9.520;2023-02-11T11:13:00;7.50;98.00
4505;DHT22;2265;48.794;9.520;2023-02-11T11:15:28;7.70;98.00
4505;DHT22;2265;48.794;9.520;2023-02-11T11:18:12;7.90;98.00
4505;DHT22;2265;48.794;9.520;2023-02-11T11:20:43;8.10;98.00
4505;DHT22;2265;48.794;9.520;2023-02-11T11:23:22;8.30;98.00
4505;DHT22;2265;48.794;9.520;2023-02-11T11:26:00;8.50;98.00
4505;DHT22;2265;48.794;9.520;2023-02-11T11:28:32;8.80;98.00
4505;DHT22;2265;48.794;9.520;2023-02-11T11:31:04;9.10;98.00
4505;DHT22;2265;48.794;9.520;2023-02-11T11:33:33;9.20;98.00
4505;DHT22;2265;48.794;9.520;2023-02-11T11:36:06;9.40;98.00
4505;DHT22;2265;48.794;9.520;2023-02-11T11:38:37;9.60;98.00
4505;DHT22;2265;48.794;9.520;2023-02-11T11:41:21;9.80;98.00
4505;DHT22;2265;48.794;9.520;2023-02-11T11:44:00;10.10;98.00
4505;DHT22;2265;48.794;9.520;2023-02-11T11:46:30;10.40;98.00
4505;DHT22;2265;48.794;9.520;2023-02-11T11:49:06;10.90;98.00
4505;DHT22;2265;48.794;9.520;2023-02-11T11:51:38;11.20;97.60
4505;DHT22;2265;48.794;9.520;2023-02-11T11:54:11;11.40;96.90
4505;DHT22;2265;48.794;9.520;2023-02-11T11:56:45;11.50;96.30
4505;DHT22;2265;48.794;9.520;2023-02-11T11:59:13;11.50;96.00
4505;DHT22;2265;48.794;9.520;2023-02-11T12:01:53;11.40;95.80
4505;DHT22;2265;48.794;9.520;2023-02-11T12:04:49;11.50;95.60
4505;DHT22;2265;48.794;9.520;2023-02-11T12:07:30;11.70;94.20
4505;DHT22;2265;48.794;9.520;2023-02-11T12:10:21;12.10;94.50
4505;DHT22;2265;48.794;9.520;2023-02-11T12:12:54;12.60;94.10
4505;DHT22;2265;48.794;9.520;2023-02-11T12:15:31;12.50;92.80
4505;DHT22;2265;48.794;9.520;2023-02-11T12:18:19;12.10;93.30
4505;DHT22;2265;48.794;9.520;2023-02-11T12:24:05;11.70;94.90
4505;DHT22;2265;48.794;9.520;2023-02-11T12:26:44;11.50;95.20
4505;DHT22;2265;48.794;9.520;2023-02-11T12:29:18;11.30;96.90
4505;DHT22;2265;48.794;9.520;2023-02-11T12:32:03;11.00;97.30
4505;DHT22;2265;48.794;9.520;2023-02-11T12:37:32;10.70;97.30
4505;DHT22;2265;48.794;9.520;2023-02-11T12:40:13;10.70;97.90
4505;DHT22;2265;48.794;9.520;2023-02-11T12:43:03;10.80;98.00
4505;DHT22;2265;48.794;9.520;2023-02-11T12:45:58;11.90;98.00
4505;DHT22;2265;48.794;9.520;2023-02-11T12:48:43;12.20;95.40
4505;DHT22;2265;48.794;9.520;2023-02-11T12:51:21;12.10;95.60
4505;DHT22;2265;48.794;9.520;2023-02-11T12:54:07;11.70;96.40
4505;DHT22;2265;48.794;9.520;2023-02-11T12:56:45;11.10;96.60
4505;DHT22;2265;48.794;9.520;2023-02-11T12:59:27;11.10;98.00
4505;DHT22;2265;48.794;9.520;2023-02-11T13:01:57;10.80;98.00
4505;DHT22;2265;48.794;9.520;2023-02-11T13:04:28;10.90;98.00
4505;DHT22;2265;48.794;9.520;2023-02-11T13:07:02;10.90;98.00
4505;DHT22;2265;48.794;9.520;2023-02-11T13:09:37;10.60;98.00
4505;DHT22;2265;48.794;9.520;2023-02-11T13:12:05;10.30;98.00
4505;DHT22;2265;48.794;9.520;2023-02-11T13:14:49;10.20;98.00
4505;DHT22;2265;48.794;9.520;2023-02-11T13:17:26;10.30;98.00
4505;DHT22;2265;48.794;9.520;2023-02-11T13:19:59;10.40;98.00
4505;DHT22;2265;48.794;9.520;2023-02-11T13:22:33;10.50;98.00
4505;DHT22;2265;48.794;9.520;2023-02-11T13:25:05;10.40;98.00
4505;DHT22;2265;48.794;9.520;2023-02-11T13:27:44;10.50;98.00
4505;DHT22;2265;48.794;9.520;2023-02-11T13:30:24;10.40;98.00
4505;DHT22;2265;48.794;9.520;2023-02-11T13:33:29;10.40;98.00
4505;DHT22;2265;48.794;9.520;2023-02-11T13:36:15;10.40;98.00
4505;DHT22;2265;48.794;9.520;2023-02-11T13:39:01;10.50;98.00
4505;DHT22;2265;48.794;9.520;2023-02-11T13:41:34;10.30;98.00
4505;DHT22;2265;48.794;9.520;2023-02-11T13:44:12;10.40;98.00
4505;DHT22;2265;48.794;9.520;2023-02-11T13:46:56;10.40;98.00
4505;DHT22;2265;48.794;9.520;2023-02-11T13:49:28;10.30;98.00
4505;DHT22;2265;48.794;9.520;2023-02-11T13:52:02;10.30;98.00
4505;DHT22;2265;48.794;9.520;2023-02-11T13:54:34;10.40;98.00
4505;DHT22;2265;48.794;9.520;2023-02-11T13:57:32;10.40;98.00
4505;DHT22;2265;48.794;9.520;2023-02-11T14:03:26;10.60;98.00
4505;DHT22;2265;48.794;9.520;2023-02-11T14:06:14;10.70;98.00
4505;DHT22;2265;48.794;9.520;2023-02-11T14:11:49;10.40;98.00
4505;DHT22;2265;48.794;9.520;2023-02-11T14:14:21;10.20;98.00
4505;DHT22;2265;48.794;9.520;2023-02-11T14:19:54;10.00;98.00
4505;DHT22;2265;48.794;9.520;2023-02-11T14:22:24;10.10;98.00
4505;DHT22;2265;48.794;9.520;2023-02-11T14:24:55;10.60;98.00
4505;DHT22;2265;48.794;9.520;2023-02-11T14:27:40;11.20;98.00
4505;DHT22;2265;48.794;9.520;2023-02-11T14:30:31;11.80;98.00
4505;DHT22;2265;48.794;9.520;2023-02-11T14:33:25;12.30;98.00
4505;DHT22;2265;48.794;9.520;2023-02-11T14:36:06;13.00;98.00
4505;DHT22;2265;48.794;9.520;2023-02-11T14:38:46;13.40;97.00
4505;DHT22;2265;48.794;9.520;2023-02-11T14:41:19;13.90;95.60
4505;DHT22;2265;48.794;9.520;2023-02-11T14:43:52;14.30;94.10
4505;DHT22;2265;48.794;9.520;2023-02-11T14:46:23;14.10;94.70
4505;DHT22;2265;48.794;9.520;2023-02-11T14:48:53;13.60;95.30
4505;DHT22;2265;48.794;9.520;2023-02-11T14:51:25;13.10;96.90
4505;DHT22;2265;48.794;9.520;2023-02-11T14:53:56;12.90;97.60
4505;DHT22;2265;48.794;9.520;2023-02-11T14:56:27;12.50;98.00
4505;DHT22;2265;48.794;9.520;2023-02-11T14:58:56;12.40;98.00
4505;DHT22;2265;48.794;9.520;2023-02-11T15:01:29;12.20;98.00
4505;DHT22;2265;48.794;9.520;2023-02-11T15:03:59;12.10;98.00
4505;DHT22;2265;48.794;9.520;2023-02-11T15:06:33;12.00;98.00
4505;DHT22;2265;48.794;9.520;2023-02-11T15:09:04;12.60;98.00
4505;DHT22;2265;48.794;9.520;2023-02-11T15:11:36;13.30;97.50
4505;DHT22;2265;48.794;9.520;2023-02-11T15:14:10;13.70;96.80
4505;DHT22;2265;48.794;9.520;2023-02-11T15:16:45;13.90;95.70
4505;DHT22;2265;48.794;9.520;2023-02-11T15:19:20;14.40;94.90
4505;DHT22;2265;48.794;9.520;2023-02-11T15:21:51;14.70;93.30
4505;DHT22;2265;48.794;9.520;2023-02-11T15:24:24;14.80;92.40
4505;DHT22;2265;48.794;9.520;2023-02-11T15:26:56;15.00;92.30
4505;DHT22;2265;48.794;9.520;2023-02-11T15:29:23;15.20;92.30
4505;DHT22;2265;48.794;9.520;2023-02-11T15:32:05;15.60;90.60
4505;DHT22;2265;48.794;9.520;2023-02-11T15:34:33;16.10;89.60
4505;DHT22;2265;48.794;9.520;2023-02-11T15:37:01;16.10;88.30
4505;DHT22;2265;48.794;9.520;2023-02-11T15:39:31;16.00;89.70
4505;DHT22;2265;48.794;9.520;2023-02-11T15:42:20;15.90;89.10
4505;DHT22;2265;48.794;9.520;2023-02-11T15:44:48;16.00;88.30
4505;DHT22;2265;48.794;9.520;2023-02-11T15:47:19;15.70;88.30
4505;DHT22;2265;48.794;9.520;2023-02-11T15:49:47;15.20;87.70
4505;DHT22;2265;48.794;9.520;2023-02-11T15:52:23;14.70;88.30
4505;DHT22;2265;48.794;9.520;2023-02-11T15:54:51;14.10;89.60
4505;DHT22;2265;48.794;9.520;2023-02-11T15:57:20;13.30;91.50
4505;DHT22;2265;48.794;9.520;2023-02-11T15:59:49;12.80;93.40
4505;DHT22;2265;48.794;9.520;2023-02-11T16:02:18;12.30;95.10
4505;DHT22;2265;48.794;9.520;2023-02-11T16:04:50;11.70;97.00
4505;DHT22;2265;48.794;9.520;2023-02-11T16:07:39;11.10;98.00
4505;DHT22;2265;48.794;9.520;2023-02-11T16:10:19;10.70;98.00
4505;DHT22;2265;48.794;9.520;2023-02-11T16:13:14;10.50;98.00
4505;DHT22;2265;48.794;9.520;2023-02-11T16:15:46;10.30;98.00
4505;DHT22;2265;48.794;9.520;2023-02-11T16:18:36;10.10;98.00
4505;DHT22;2265;48.794;9.520;2023-02-11T16:21:05;10.00;98.00
4505;DHT22;2265;48.794;9.520;2023-02-11T16:23:36;9.80;98.00
4505;DHT22;2265;48.794;9.520;2023-02-11T16:26:11;9.70;98.00
4505;DHT22;2265;48.794;9.520;2023-02-11T16:28:38;9.60;98.00
4505;DHT22;2265;48.794;9.520;2023-02-11T16:31:06;9.50;98.00
4505;DHT22;2265;48.794;9.520;2023-02-11T16:33:34;9.30;98.00
4505;DHT22;2265;48.794;9.520;2023-02-11T16:36:09;9.30;98.00
4505;DHT22;2265;48.794;9.520;2023-02-11T16:38:38;9.30;98.00
4505;DHT22;2265;48.794;9.520;2023-02-11T16:41:05;9.20;98.00
4505;DHT22;2265;48.794;9.520;2023-02-11T16:43:33;9.20;98.00
4505;DHT22;2265;48.794;9.520;2023-02-11T16:46:03;9.20;98.00
4505;DHT22;2265;48.794;9.520;2023-02-11T16:48:31;9.10;98.00
4505;DHT22;2265;48.794;9.520;2023-02-11T16:50:59;9.10;98.00
4505;DHT22;2265;48.794;9.520;2023-02-11T16:53:26;9.00;98.00
4505;DHT22;2265;48.794;9.520;2023-02-11T16:55:55;8.90;98.00
4505;DHT22;2265;48.794;9.520;2023-02-11T16:58:22;8.90;98.00
4505;DHT22;2265;48.794;9.520;2023-02-11T17:00:49;8.90;98.00
4505;DHT22;2265;48.794;9.520;2023-02-11T17:03:19;8.80;98.00